Alsen, North Dakota
Current Conditions -  °F | °C
As of 5:55 AM on Thursday 23 Oct 2014 (Local Time) from KD55 Reporting Station
Clear Clear  
Wind Chill:   Ceiling: Unl
Heat Index:   Visibility: 10mi
Dew Point:   Wind: 12mph
Humidity: 93%   Direction: 240°WSW
Pressure: 29.81"   Gusts: NA
Location:  48.63°N, 98.7°W
Report Text: KD55 231055Z AUTO 24010KT 10SM CLR 05/04 A2981 RMK AO2
Loading
Personal Weather Stations






























Interactive Weather Map
Tropical Storm Tracking
New forecast layout! Learn more

10-Day Weather Forecast

Advertisements
Track Severe Weather on mobile